ESGS weather

Näsinge Airport
Strömstad, Västra Götalands län, Sweden

Public forecast

Using degrees Celsius for public forecast. Weather courtesy of forecast.io.

METAR (pilot weather report)

Closest report is Moss Airport, Rygge, 27.7 nm (51.3 km) NW. Retrieved 2019/05/21 04:20 UTC (32 minutes ago):

ENRY 210420Z AUTO 35005KT 320V020 9999NDV FEW031/// 14/13 Q1011

TAF (pilot weather forecast)

Closest forecast is Moss Airport, Rygge, 27.7 nm (51.3 km) NW. Retrieved 2019/05/21 00:03 UTC (5 hours ago):

TAF TAF ENRY 202300Z 2100/2124 02008KT 9999 FEW010 BKN020 PROB30 TEMPO 2100/2108 2000 BR BKN004 PROB30 TEMPO 2112/2124 4000 TSRA BKN012 SCT025CB